地図

経路データ

SID SEASON NUMBER BASIN SUBBASIN NAME ISO_TIME NATURE LAT LON WMO_WIND WMO_PRES WMO_AGENCY TRACK_TYPE DIST2LAND LANDFALL IFLAG USA_AGENCY USA_ATCF_ID USA_LAT USA_LON USA_RECORD USA_STATUS USA_WIND USA_PRES USA_SSHS USA_R34_NE USA_R34_SE USA_R34_SW USA_R34_NW USA_R50_NE USA_R50_SE USA_R50_SW USA_R50_NW USA_R64_NE USA_R64_SE USA_R64_SW USA_R64_NW USA_POCI USA_ROCI USA_RMW USA_EYE TOKYO_LAT TOKYO_LON TOKYO_GRADE TOKYO_WIND TOKYO_PRES TOKYO_R50_DIR TOKYO_R50_LONG TOKYO_R50_SHORT TOKYO_R30_DIR TOKYO_R30_LONG TOKYO_R30_SHORT TOKYO_LAND CMA_LAT CMA_LON CMA_CAT CMA_WIND CMA_PRES HKO_LAT HKO_LON HKO_CAT HKO_WIND HKO_PRES NEWDELHI_LAT NEWDELHI_LON NEWDELHI_GRADE NEWDELHI_WIND NEWDELHI_PRES NEWDELHI_CI NEWDELHI_DP NEWDELHI_POCI REUNION_LAT REUNION_LON REUNION_TYPE REUNION_WIND REUNION_PRES REUNION_TNUM REUNION_CI REUNION_RMW REUNION_R34_NE REUNION_R34_SE REUNION_R34_SW REUNION_R34_NW REUNION_R50_NE REUNION_R50_SE REUNION_R50_SW REUNION_R50_NW REUNION_R64_NE REUNION_R64_SE REUNION_R64_SW REUNION_R64_NW BOM_LAT BOM_LON BOM_TYPE BOM_WIND BOM_PRES BOM_TNUM BOM_CI BOM_RMW BOM_R34_NE BOM_R34_SE BOM_R34_SW BOM_R34_NW BOM_R50_NE BOM_R50_SE BOM_R50_SW BOM_R50_NW BOM_R64_NE BOM_R64_SE BOM_R64_SW BOM_R64_NW BOM_ROCI BOM_POCI BOM_EYE BOM_POS_METHOD BOM_PRES_METHOD NADI_LAT NADI_LON NADI_CAT NADI_WIND NADI_PRES WELLINGTON_LAT WELLINGTON_LON WELLINGTON_WIND WELLINGTON_PRES DS824_LAT DS824_LON DS824_STAGE DS824_WIND DS824_PRES TD9636_LAT TD9636_LON TD9636_STAGE TD9636_WIND TD9636_PRES TD9635_LAT TD9635_LON TD9635_WIND TD9635_PRES TD9635_ROCI NEUMANN_LAT NEUMANN_LON NEUMANN_CLASS NEUMANN_WIND NEUMANN_PRES MLC_LAT MLC_LON MLC_CLASS MLC_WIND MLC_PRES USA_GUST BOM_GUST BOM_GUST_PER REUNION_GUST REUNION_GUST_PER USA_SEAHGT USA_SEARAD_NE USA_SEARAD_SE USA_SEARAD_SW USA_SEARAD_NW STORM_SPEED STORM_DIR
1954209N28270 1954 34 NA GM BARBARA 1954-07-27 12:00:00 TS 27.8000 -90.1000 25 hurdat_atl main 145 133 O_____________ hurdat_atl AL051954 27.8000 -90.1000 TD 25 -1 3 318
1954209N28270 1954 34 NA GM BARBARA 1954-07-27 15:00:00 TS 27.8975 -90.2000 main 133 123 P_____________ AL051954 27.8975 -90.2000 TD 27 -1 3 318
1954209N28270 1954 34 NA GM BARBARA 1954-07-27 18:00:00 TS 28.0000 -90.3000 30 hurdat_atl main 123 113 O_____________ hurdat_atl AL051954 28.0000 -90.3000 TD 30 -1 3 320
1954209N28270 1954 34 NA GM BARBARA 1954-07-27 21:00:00 TS 28.1075 -90.4000 main 113 100 P_____________ AL051954 28.1075 -90.4000 TD 30 -1 3 318
1954209N28270 1954 34 NA GM BARBARA 1954-07-28 00:00:00 TS 28.2000 -90.5000 30 hurdat_atl main 100 89 O_____________ hurdat_atl AL051954 28.2000 -90.5000 TD 30 -1 2 314
1954209N28270 1954 34 NA GM BARBARA 1954-07-28 03:00:00 TS 28.2649 -90.5850 main 89 89 P_____________ AL051954 28.2649 -90.5850 TD 32 -1 2 300
1954209N28270 1954 34 NA GM BARBARA 1954-07-28 06:00:00 TS 28.3000 -90.7000 35 hurdat_atl main 89 89 O_____________ hurdat_atl AL051954 28.3000 -90.7000 TS 35 0 3 276
1954209N28270 1954 34 NA GM BARBARA 1954-07-28 09:00:00 TS 28.2925 -90.8851 main 89 89 P_____________ AL051954 28.2925 -90.8851 TS 37 0 4 270
1954209N28270 1954 34 NA GM BARBARA 1954-07-28 12:00:00 TS 28.3000 -91.1000 40 hurdat_atl main 91 83 O_____________ hurdat_atl AL051954 28.3000 -91.1000 TS 40 0 4 285
1954209N28270 1954 34 NA GM BARBARA 1954-07-28 15:00:00 TS 28.3849 -91.2925 main 87 82 P_____________ AL051954 28.3849 -91.2925 TS 45 0 4 300
1954209N28270 1954 34 NA GM BARBARA 1954-07-28 18:00:00 TS 28.5000 -91.5000 50 hurdat_atl main 87 87 O_____________ hurdat_atl AL051954 28.5000 -91.5000 TS 50 0 4 296
1954209N28270 1954 34 NA GM BARBARA 1954-07-28 21:00:00 TS 28.5775 -91.7427 main 88 88 P_____________ AL051954 28.5775 -91.7427 TS 50 0 5 294
1954209N28270 1954 34 NA GM BARBARA 1954-07-29 00:00:00 TS 28.7000 -92.0000 50 hurdat_atl main 93 67 O_____________ hurdat_atl AL051954 28.7000 -92.0000 TS 50 0 6 306
1954209N28270 1954 34 NA GM BARBARA 1954-07-29 03:00:00 TS 28.9059 -92.2546 main 66 38 P_____________ AL051954 28.9059 -92.2546 TS 50 0 7 319
1954209N28270 1954 34 NA GM BARBARA 1954-07-29 06:00:00 TS 29.2000 -92.5000 50 hurdat_atl main 38 9 O_____________ hurdat_atl AL051954 29.2000 -92.5000 TS 50 0 8 329
1954209N28270 1954 34 NA GM BARBARA 1954-07-29 09:00:00 TS 29.5805 -92.7159 main 9 0 P_____________ AL051954 29.5805 -92.7159 TS 50 0 8 332
1954209N28270 1954 34 NA NA BARBARA 1954-07-29 10:00:00 TS 29.7000 -92.8000 50 999 hurdat_atl main 0 0 O_____________ hurdat_atl AL051954 29.7000 -92.8000 L TS 50 999 0 8 322
1954209N28270 1954 34 NA NA BARBARA 1954-07-29 12:00:00 TS 29.9000 -93.0000 50 999 hurdat_atl main 0 0 O_____________ hurdat_atl AL051954 29.9000 -93.0000 TS 50 999 0 8 316
1954209N28270 1954 34 NA NA BARBARA 1954-07-29 15:00:00 TS 30.1744 -93.3255 main 0 0 P_____________ AL051954 30.1744 -93.3255 TS 45 1000 0 8 310
1954209N28270 1954 34 NA NA BARBARA 1954-07-29 18:00:00 TS 30.4000 -93.7000 40 1002 hurdat_atl main 0 0 O_____________ hurdat_atl AL051954 30.4000 -93.7000 TS 40 1002 0 8 299
1954209N28270 1954 34 NA NA BARBARA 1954-07-29 21:00:00 TS 30.5649 -94.1278 main 0 0 P_____________ AL051954 30.5649 -94.1278 TS 35 0 8 291
1954209N28270 1954 34 NA NA BARBARA 1954-07-30 00:00:00 TS 30.7000 -94.6000 30 hurdat_atl main 0 0 O_____________ hurdat_atl AL051954 30.7000 -94.6000 TD 30 -1 9 288
1954209N28270 1954 34 NA NA BARBARA 1954-07-30 03:00:00 TS 30.8348 -95.0854 main 0 0 P_____________ AL051954 30.8348 -95.0854 TD 27 -1 9 289
1954209N28270 1954 34 NA NA BARBARA 1954-07-30 06:00:00 TS 31.0000 -95.6000 25 hurdat_atl main 0 0 O_____________ hurdat_atl AL051954 31.0000 -95.6000 TD 25 -1 10 294
1954209N28270 1954 34 NA NA BARBARA 1954-07-30 09:00:00 TS 31.2305 -96.1417 main 0 0 P_____________ AL051954 31.2305 -96.1417 TD 25 -1 11 298
1954209N28270 1954 34 NA NA BARBARA 1954-07-30 12:00:00 TS 31.5000 -96.7000 25 hurdat_atl main 0 O_____________ hurdat_atl AL051954 31.5000 -96.7000 TD 25 -1 11 300

IBTrACS Databaseについて

本データベースは、米国NOAAが公開する1842年以降の世界の熱帯低気圧のベストトラックデータアーカイブInternational Best Track Archive for Climate Stewardship (IBTrACS)を、ウェブで閲覧しやすい形式に変換したものです。

最終更新日:2021-10-08